Time;durP1;ratioP1;P1;durP2;ratioP2;P2;SDS_P1;SDS_P2;PMS_P1;PMS_P2;Temp;Humidity;BMP_temperature;BMP_pressure;BME280_temperature;BME280_humidity;BME280_pressure;Samples;Min_cycle;Max_cycle;Signal;HPM_P1;HPM_P2
2021/06/15 00:00:25;;;;;;;15.80;9.68;;;;;;;22.71;47.80;100135.50;5012067;28;20065;-84
2021/06/15 00:02:54;;;;;;;20.90;10.48;;;;;;;22.67;47.35;100139.50;5010702;28;20050;-84
2021/06/15 00:05:21;;;;;;;19.33;10.38;;;;;;;22.64;47.61;100156.78;5011951;28;20050;-85
2021/06/15 00:07:48;;;;;;;17.23;10.48;;;;;;;22.59;47.71;100138.47;5012022;28;20057;-84
2021/06/15 00:10:21;;;;;;;16.90;9.18;;;;;;;22.52;48.14;100146.28;5010884;28;20049;-84
2021/06/15 00:12:48;;;;;;;;;;;;;;;22.49;45.69;100145.72;5010544;28;20061;-85
2021/06/15 00:15:15;;;;;;;13.88;10.00;;;;;;;22.48;47.42;100136.88;5010401;28;20434;-84
2021/06/15 00:17:43;;;;;;;16.55;11.38;;;;;;;22.42;47.78;100133.97;5012931;28;20788;-84
2021/06/15 00:20:11;;;;;;;16.50;11.85;;;;;;;22.35;48.01;100139.13;5010557;28;20050;-84
2021/06/15 00:22:38;;;;;;;18.73;12.63;;;;;;;22.31;48.45;100141.25;5011914;28;20050;-84
2021/06/15 00:25:06;;;;;;;15.75;12.07;;;;;;;22.27;48.75;100139.88;5011615;28;20570;-85
2021/06/15 00:27:34;;;;;;;21.08;13.20;;;;;;;22.23;48.58;100142.03;5010580;28;20418;-84
2021/06/15 00:30:00;;;;;;;18.58;13.02;;;;;;;22.20;48.74;100144.19;5011697;28;20054;-84
2021/06/15 00:32:27;;;;;;;18.65;13.10;;;;;;;22.18;49.05;100143.47;5022594;28;20050;-84
2021/06/15 00:34:54;;;;;;;15.93;12.35;;;;;;;22.16;49.01;100148.16;5031282;28;20495;-85
2021/06/15 00:37:21;;;;;;;14.75;11.90;;;;;;;22.11;48.99;100141.44;5032180;28;20088;-84
2021/06/15 00:39:48;;;;;;;14.10;11.43;;;;;;;22.09;49.15;100148.75;5030687;28;20515;-85
2021/06/15 00:42:16;;;;;;;15.27;10.60;;;;;;;22.07;49.45;100149.91;5032139;28;20083;-84
2021/06/15 00:44:43;;;;;;;14.18;10.13;;;;;;;22.05;49.42;100151.91;5031651;28;20050;-85
2021/06/15 00:47:10;;;;;;;15.32;11.13;;;;;;;22.02;49.30;100162.94;5013667;28;20069;-84
2021/06/15 00:49:38;;;;;;;15.70;10.75;;;;;;;21.98;49.53;100152.50;5011328;28;20046;-85
2021/06/15 00:52:05;;;;;;;17.65;11.48;;;;;;;21.94;49.60;100156.50;5010412;28;20061;-84
2021/06/15 00:54:33;;;;;;;17.17;10.90;;;;;;;21.91;49.83;100153.28;5011660;28;20486;-84
2021/06/15 00:57:00;;;;;;;14.27;9.93;;;;;;;21.86;49.92;100151.91;5015278;28;20392;-84
2021/06/15 00:59:26;;;;;;;15.30;10.30;;;;;;;21.82;49.91;100163.06;5019642;28;20391;-84
2021/06/15 01:01:53;;;;;;;13.93;10.45;;;;;;;21.79;50.00;100172.25;5034703;28;20083;-84
2021/06/15 01:04:20;;;;;;;18.95;11.15;;;;;;;21.77;50.09;100168.03;5033415;28;20053;-84
2021/06/15 01:06:50;;;;;;;13.50;10.40;;;;;;;21.71;50.82;100161.41;5034698;28;20126;-84
2021/06/15 01:09:52;;;;;;;15.77;10.57;;;;;;;21.65;49.84;100162.88;5034537;28;20124;-84
2021/06/15 01:12:40;;;;;;;15.00;10.27;;;;;;;21.66;50.69;100174.41;5033058;28;20075;-84
2021/06/15 01:15:09;;;;;;;14.05;10.15;;;;;;;21.61;50.63;100177.56;5031274;28;20053;-84
2021/06/15 01:18:01;;;;;;;16.27;11.00;;;;;;;21.53;50.50;100172.09;5033064;28;20057;-85
2021/06/15 01:20:41;;;;;;;15.70;11.17;;;;;;;21.50;50.58;100175.06;5033491;28;20418;-85
2021/06/15 01:23:33;;;;;;;16.70;10.65;;;;;;;21.46;50.95;100178.03;5034078;28;20820;-84
2021/06/15 01:26:10;;;;;;;14.23;10.30;;;;;;;21.40;51.30;100185.81;5023299;28;20544;-84
2021/06/15 01:28:45;;;;;;;16.10;11.70;;;;;;;21.37;51.38;100176.25;5016252;28;20124;-85
2021/06/15 01:31:19;;;;;;;14.23;11.02;;;;;;;21.34;51.56;100176.53;5014757;28;20058;-84
2021/06/15 01:33:56;;;;;;;13.93;11.25;;;;;;;21.30;51.57;100191.25;5017261;23;20050;-81
2021/06/15 01:36:32;;;;;;;15.35;10.75;;;;;;;21.26;52.10;100187.16;5053536;28;20052;-80
2021/06/15 01:39:05;;;;;;;15.27;10.05;;;;;;;21.24;51.62;100186.47;5053657;28;20049;-81
2021/06/15 01:41:53;;;;;;;14.60;10.32;;;;;;;21.15;51.30;100191.69;5052836;28;20128;-81
2021/06/15 01:44:22;;;;;;;15.23;9.70;;;;;;;21.18;51.45;100190.56;5053226;28;20048;-80
2021/06/15 01:47:16;;;;;;;16.02;9.75;;;;;;;21.09;51.92;100194.97;5052706;28;20049;-80
2021/06/15 01:50:03;;;;;;;14.23;9.65;;;;;;;21.07;51.66;100191.59;5028304;28;20064;-81
2021/06/15 01:52:36;;;;;;;16.20;10.18;;;;;;;21.05;52.38;100194.41;5033787;28;20512;-81
2021/06/15 01:55:06;;;;;;;15.85;10.13;;;;;;;21.05;52.26;100190.91;5040720;28;20053;-81
2021/06/15 01:57:35;;;;;;;13.60;9.32;;;;;;;21.00;52.30;100195.84;5054627;28;20071;-81
2021/06/15 02:00:11;;;;;;;12.13;8.77;;;;;;;20.93;52.76;100185.72;5053082;28;20045;-81
2021/06/15 02:02:42;;;;;;;16.00;8.98;;;;;;;20.92;52.55;100191.19;5053119;28;20132;-81
2021/06/15 02:05:11;;;;;;;14.77;9.02;;;;;;;20.90;52.30;100191.34;5053149;28;20451;-81
2021/06/15 02:07:42;;;;;;;15.18;8.50;;;;;;;20.86;52.89;100179.22;5053158;28;20065;-80
2021/06/15 02:10:11;;;;;;;13.07;8.80;;;;;;;20.85;52.64;100184.72;5035262;28;20468;-81
2021/06/15 02:12:41;;;;;;;14.85;9.35;;;;;;;20.80;53.01;100179.78;5033162;28;20542;-80
2021/06/15 02:15:10;;;;;;;15.00;8.88;;;;;;;20.75;52.80;100174.88;5032962;28;20057;-81
2021/06/15 02:17:47;;;;;;;15.77;8.50;;;;;;;20.69;53.53;100181.66;5032876;28;20050;-81
2021/06/15 02:20:16;;;;;;;15.30;8.57;;;;;;;20.67;52.75;100180.13;5033187;28;20409;-81
2021/06/15 02:22:52;;;;;;;12.38;7.82;;;;;;;20.61;53.55;100188.69;5039895;28;20056;-81
2021/06/15 02:25:25;;;;;;;11.10;8.15;;;;;;;20.60;53.57;100181.66;5052591;28;20082;-81
2021/06/15 02:27:52;;;;;;;15.13;9.03;;;;;;;20.57;53.00;100185.47;5052625;28;20052;-81
2021/06/15 02:30:20;;;;;;;15.85;9.52;;;;;;;20.54;53.37;100189.28;5052925;28;20057;-81
2021/06/15 02:32:50;;;;;;;17.38;9.98;;;;;;;20.52;53.56;100191.22;5052638;28;20049;-81
2021/06/15 02:35:22;;;;;;;14.55;8.32;;;;;;;20.48;54.09;100191.69;5052433;28;20599;-81
2021/06/15 02:38:07;;;;;;;12.17;8.77;;;;;;;20.45;54.25;100190.13;5034471;28;20387;-81
2021/06/15 02:40:36;;;;;;;12.02;7.90;;;;;;;20.45;53.71;100192.81;5032337;28;20395;-81
2021/06/15 02:43:05;;;;;;;11.55;8.25;;;;;;;20.41;53.87;100197.56;5032445;28;20051;-81
2021/06/15 02:45:35;;;;;;;12.23;8.15;;;;;;;20.39;53.48;100194.22;5032472;28;20478;-81
2021/06/15 02:48:06;;;;;;;13.23;8.00;;;;;;;20.34;54.25;100195.59;5032325;28;20061;-81
2021/06/15 02:50:36;;;;;;;13.05;8.60;;;;;;;20.32;54.18;100203.75;5033672;28;20401;-81
2021/06/15 02:53:21;;;;;;;14.85;8.63;;;;;;;20.24;54.13;100193.78;5047875;28;20500;-81
2021/06/15 02:56:04;;;;;;;10.82;8.35;;;;;;;20.23;54.72;100193.91;5052307;28;20404;-81
2021/06/15 02:58:31;;;;;;;15.82;8.57;;;;;;;20.21;53.89;100195.88;5052135;28;20064;-81
2021/06/15 03:00:58;;;;;;;16.00;8.75;;;;;;;20.17;53.88;100192.66;5051483;28;20056;-81
2021/06/15 03:03:29;;;;;;;12.40;8.27;;;;;;;20.13;53.86;100188.56;5051775;28;20081;-81
2021/06/15 03:05:56;;;;;;;13.07;8.48;;;;;;;20.09;54.36;100193.34;5044495;28;20049;-81
2021/06/15 03:08:23;;;;;;;14.50;8.77;;;;;;;20.04;54.16;100190.25;5032112;28;20053;-82
2021/06/15 03:10:49;;;;;;;15.52;7.95;;;;;;;19.99;54.16;100193.31;5031874;28;20063;-81
2021/06/15 03:13:32;;;;;;;16.88;9.18;;;;;;;19.93;55.39;100188.53;5031889;28;20486;-81
2021/06/15 03:16:01;;;;;;;14.40;8.68;;;;;;;19.91;54.71;100202.00;5031637;28;20064;-82
2021/06/15 03:18:32;;;;;;;17.63;9.10;;;;;;;19.88;55.21;100202.28;5031298;28;20052;-81
2021/06/15 03:21:03;;;;;;;15.07;8.70;;;;;;;19.86;56.04;100212.28;5032222;28;20046;-82
2021/06/15 03:23:33;;;;;;;13.88;8.88;;;;;;;19.86;56.07;100214.94;5031777;28;20053;-82
2021/06/15 03:26:03;;;;;;;14.75;8.93;;;;;;;19.88;55.87;100212.97;5031682;28;20061;-82
2021/06/15 03:28:32;;;;;;;14.25;7.80;;;;;;;19.89;55.78;100209.31;5031593;28;20051;-82
2021/06/15 03:31:01;;;;;;;12.25;8.48;;;;;;;19.91;55.73;100215.38;5031887;28;20061;-82
2021/06/15 03:33:28;;;;;;;12.52;8.48;;;;;;;19.93;55.89;100209.91;5037651;28;20072;-82
2021/06/15 03:35:58;;;;;;;16.23;9.27;;;;;;;19.93;56.04;100221.41;5052621;28;20061;-82
2021/06/15 03:38:30;;;;;;;16.08;9.10;;;;;;;19.95;56.36;100233.81;5051566;28;20132;-82
2021/06/15 03:40:58;;;;;;;12.70;8.68;;;;;;;19.97;55.79;100231.81;5051361;28;20052;-82
2021/06/15 03:43:32;;;;;;;13.05;9.02;;;;;;;19.96;56.99;100228.28;5051423;28;20061;-82
2021/06/15 03:46:06;;;;;;;12.48;8.35;;;;;;;19.99;56.54;100232.56;5051326;28;20075;-82
2021/06/15 03:48:37;;;;;;;10.57;8.40;;;;;;;20.02;56.28;100232.28;5034791;28;20049;-82
2021/06/15 03:51:04;;;;;;;14.43;9.13;;;;;;;20.03;55.75;100233.97;5031279;28;20061;-82
2021/06/15 03:53:34;;;;;;;15.15;8.95;;;;;;;20.04;56.28;100244.53;5031287;28;20136;-81
2021/06/15 03:56:03;;;;;;;11.38;8.05;;;;;;;20.05;56.26;100243.56;5032123;28;20124;-82
2021/06/15 03:58:33;;;;;;;10.57;7.35;;;;;;;20.07;56.68;100246.06;5031373;28;20051;-84
2021/06/15 04:01:01;;;;;;;13.30;8.25;;;;;;;20.11;55.97;100250.16;5035828;28;20064;-84
2021/06/15 04:03:32;;;;;;;16.00;9.23;;;;;;;20.13;56.15;100258.03;5051479;28;20071;-84
2021/06/15 04:06:02;;;;;;;13.07;8.07;;;;;;;20.15;56.40;100254.25;5051508;28;20504;-84
2021/06/15 04:08:33;;;;;;;15.05;8.55;;;;;;;20.17;56.52;100254.13;5051154;28;20055;-84
2021/06/15 04:11:01;;;;;;;11.77;8.45;;;;;;;20.20;56.19;100253.84;5051967;28;20482;-85
2021/06/15 04:13:30;;;;;;;11.48;7.50;;;;;;;20.22;55.95;100241.19;5051766;28;20057;-85
2021/06/15 04:15:58;;;;;;;10.90;7.00;;;;;;;20.24;55.83;100243.72;5049926;28;20057;-85
2021/06/15 04:18:27;;;;;;;13.50;7.00;;;;;;;20.26;55.49;100247.94;5051595;28;20057;-85
2021/06/15 04:21:01;;;;;;;13.77;6.45;;;;;;;20.26;56.01;100253.28;5051700;28;20049;-85
2021/06/15 04:23:39;;;;;;;8.00;6.15;;;;;;;20.29;55.77;100268.19;5051609;28;20049;-85
2021/06/15 04:26:07;;;;;;;11.55;6.25;;;;;;;20.34;55.29;100276.66;5051694;28;20504;-85
2021/06/15 04:28:35;;;;;;;18.25;6.97;;;;;;;20.37;55.38;100281.72;5051360;28;20489;-85
2021/06/15 04:31:02;;;;;;;10.65;6.18;;;;;;;20.39;54.96;100282.44;5055227;28;20051;-85
2021/06/15 04:33:30;;;;;;;12.70;6.05;;;;;;;20.41;55.00;100282.31;5055595;28;20455;-84
2021/06/15 04:36:01;;;;;;;10.73;6.22;;;;;;;20.41;55.17;100282.31;5055415;28;20063;-84
2021/06/15 04:38:31;;;;;;;12.85;6.57;;;;;;;20.40;54.93;100281.44;5055536;28;20465;-84
2021/06/15 04:41:04;;;;;;;15.13;7.45;;;;;;;20.41;55.34;100279.63;5054888;28;20079;-84
2021/06/15 04:43:49;;;;;;;9.82;6.03;;;;;;;20.39;55.20;100276.22;5042173;28;20413;-84
2021/06/15 04:46:26;;;;;;;12.60;7.15;;;;;;;20.42;54.74;100266.09;5034416;28;20059;-84
2021/06/15 04:49:14;;;;;;;10.38;6.07;;;;;;;20.41;55.04;100280.47;5034891;28;20410;-82
2021/06/15 04:51:43;;;;;;;9.32;6.32;;;;;;;20.42;55.30;100262.59;5034560;28;20053;-84
2021/06/15 04:54:13;;;;;;;11.07;7.40;;;;;;;20.43;55.29;100267.81;5036381;28;20449;-85
2021/06/15 04:56:43;;;;;;;13.15;7.20;;;;;;;20.43;55.03;100280.31;5034038;28;20052;-85
2021/06/15 04:59:12;;;;;;;12.25;7.13;;;;;;;20.43;54.91;100289.19;5034640;28;20520;-82
2021/06/15 05:01:43;;;;;;;11.88;6.82;;;;;;;20.40;55.34;100286.78;5033931;28;20413;-83
2021/06/15 05:04:12;;;;;;;11.25;7.30;;;;;;;20.39;55.19;100286.94;5034187;28;20531;-84
2021/06/15 05:06:40;;;;;;;10.45;6.82;;;;;;;20.39;55.15;100295.81;5033369;28;20059;-84
2021/06/15 05:09:08;;;;;;;8.43;6.32;;;;;;;20.39;55.29;100300.28;5034197;28;20405;-85
2021/06/15 05:11:37;;;;;;;11.32;7.10;;;;;;;20.40;55.35;100304.66;5049760;28;20497;-85
2021/06/15 05:14:08;;;;;;;12.40;6.40;;;;;;;20.38;55.67;100307.50;5053750;28;20055;-85
2021/06/15 05:16:38;;;;;;;14.90;7.18;;;;;;;20.40;55.39;100305.50;5055166;28;20059;-85
2021/06/15 05:19:06;;;;;;;9.35;6.40;;;;;;;20.43;55.12;100307.91;5054230;28;20562;-85
2021/06/15 05:22:21;;;;;;;12.50;7.00;;;;;;;20.38;55.29;100302.16;5054166;28;20049;-85
2021/06/15 05:24:55;;;;;;;10.43;6.85;;;;;;;20.46;55.04;100306.78;5043433;28;20059;-84
2021/06/15 05:27:42;;;;;;;11.45;6.68;;;;;;;20.42;55.40;100310.72;5034071;28;20107;-85
2021/06/15 05:30:11;;;;;;;12.25;6.50;;;;;;;20.47;54.94;100308.47;5033852;28;20128;-85
2021/06/15 05:32:43;;;;;;;17.95;7.25;;;;;;;20.47;55.29;100313.81;5033973;28;20049;-85
2021/06/15 05:35:11;;;;;;;12.77;6.53;;;;;;;20.46;54.90;100312.13;5033604;28;20114;-85
2021/06/15 05:37:40;;;;;;;14.02;6.60;;;;;;;20.45;54.97;100323.81;5035562;28;20057;-85
2021/06/15 05:40:08;;;;;;;12.20;6.95;;;;;;;20.41;54.72;100312.53;5053123;28;20055;-85
2021/06/15 05:42:35;;;;;;;11.95;7.22;;;;;;;20.40;54.72;100313.53;5054652;28;20049;-85
2021/06/15 05:45:02;;;;;;;15.32;7.50;;;;;;;20.37;54.78;100308.44;5053354;28;20139;-85
2021/06/15 05:47:35;;;;;;;13.10;7.65;;;;;;;20.33;55.48;100314.22;5053820;28;20464;-85
2021/06/15 05:50:04;;;;;;;11.65;6.53;;;;;;;20.34;54.88;100322.13;5053692;28;20132;-85
2021/06/15 05:52:35;;;;;;;17.40;6.80;;;;;;;20.33;55.19;100316.91;5053291;28;20528;-85
2021/06/15 05:55:03;;;;;;;10.40;6.22;;;;;;;20.34;54.93;100314.09;5053524;28;20095;-85
2021/06/15 05:57:32;;;;;;;14.02;6.53;;;;;;;20.35;55.08;100326.47;5053185;28;20052;-85
2021/06/15 05:59:59;;;;;;;10.75;6.28;;;;;;;20.36;54.72;100317.47;5053549;28;20057;-85
2021/06/15 06:02:26;;;;;;;12.25;5.93;;;;;;;20.37;55.08;100316.47;5053181;28;20045;-85
2021/06/15 06:10:11;;;;;;;14.32;6.65;;;;;;;20.34;55.18;100324.78;5034267;28;20049;-85
2021/06/15 06:12:40;;;;;;;14.35;6.28;;;;;;;20.34;55.27;100329.28;5032985;28;20058;-85
2021/06/15 06:15:08;;;;;;;9.32;6.07;;;;;;;20.35;54.91;100323.81;5032888;28;20053;-85
2021/06/15 06:17:35;;;;;;;14.90;6.32;;;;;;;20.36;54.93;100329.97;5034791;28;20136;-85
2021/06/15 06:20:12;;;;;;;12.53;6.77;;;;;;;20.35;55.29;100331.81;5033393;28;20394;-85
2021/06/15 06:22:39;;;;;;;9.15;5.57;;;;;;;20.38;54.98;100328.03;5033258;28;20414;-85
2021/06/15 06:25:09;;;;;;;10.32;5.72;;;;;;;20.39;55.01;100333.25;5035018;28;20050;-85
2021/06/15 06:27:38;;;;;;;11.13;6.00;;;;;;;20.41;55.31;100333.94;5032744;28;20136;-85
2021/06/15 06:30:06;;;;;;;15.63;6.20;;;;;;;20.48;55.50;100346.78;5032919;28;20119;-85
2021/06/15 06:32:34;;;;;;;13.77;6.32;;;;;;;20.54;55.34;100354.22;5033017;28;20755;-85
2021/06/15 06:35:03;;;;;;;12.50;6.25;;;;;;;20.61;55.22;100352.69;5032430;28;20057;-85
2021/06/15 06:37:30;;;;;;;11.10;5.40;;;;;;;20.68;54.92;100356.50;5048644;28;20067;-85
2021/06/15 06:40:26;;;;;;;13.98;5.20;;;;;;;20.70;54.86;100354.53;5052110;28;20063;-85
2021/06/15 06:42:53;;;;;;;9.80;4.93;;;;;;;20.84;54.54;100360.47;5052553;28;20049;-85
2021/06/15 06:45:21;;;;;;;14.40;4.57;;;;;;;20.88;54.41;100364.59;5052472;28;20053;-85
2021/06/15 06:47:48;;;;;;;10.68;5.55;;;;;;;20.91;54.37;100358.09;5052343;28;20059;-84
2021/06/15 06:50:15;;;;;;;11.90;5.03;;;;;;;20.93;54.47;100359.66;5045379;28;20053;-85
2021/06/15 06:52:45;;;;;;;7.53;3.97;;;;;;;20.98;54.28;100358.38;5044455;28;20057;-85
2021/06/15 06:55:18;;;;;;;8.55;4.22;;;;;;;21.04;54.29;100358.66;5052081;28;20057;-84
2021/06/15 06:57:46;;;;;;;7.57;4.22;;;;;;;21.12;54.21;100365.16;5052160;28;20088;-85
2021/06/15 07:00:13;;;;;;;13.07;4.05;;;;;;;21.19;53.84;100364.44;5052062;28;20532;-85
2021/06/15 07:02:44;;;;;;;10.32;5.82;;;;;;;21.25;53.84;100371.06;5052095;28;20059;-85
2021/06/15 07:05:11;;;;;;;11.05;5.20;;;;;;;21.32;53.63;100376.69;5051075;28;20394;-85
2021/06/15 07:07:38;;;;;;;10.68;5.60;;;;;;;21.38;53.28;100372.59;5032039;28;20139;-85
2021/06/15 07:10:05;;;;;;;10.80;5.60;;;;;;;21.41;53.31;100381.19;5032135;28;20063;-85
2021/06/15 07:12:34;;;;;;;9.88;5.75;;;;;;;21.44;53.17;100383.56;5031947;28;20060;-85
2021/06/15 07:15:01;;;;;;;10.60;5.43;;;;;;;21.46;53.01;100378.91;5031966;28;20069;-85
2021/06/15 07:17:28;;;;;;;11.93;6.13;;;;;;;21.47;52.98;100377.94;5033299;28;20057;-84
2021/06/15 07:19:57;;;;;;;9.95;5.40;;;;;;;21.47;53.17;100385.13;5031848;28;20049;-85
2021/06/15 07:22:24;;;;;;;11.38;5.25;;;;;;;21.50;52.93;100383.97;5039835;28;20053;-85
2021/06/15 07:24:50;;;;;;;8.93;4.85;;;;;;;21.53;52.91;100389.06;5051582;28;20052;-85
2021/06/15 07:27:17;;;;;;;9.32;5.30;;;;;;;21.56;53.00;100388.75;5052029;28;20079;-85
2021/06/15 07:29:46;;;;;;;9.98;5.32;;;;;;;21.58;53.05;100387.66;5051570;28;20470;-85
2021/06/15 07:32:13;;;;;;;9.65;5.45;;;;;;;21.65;53.07;100385.22;5051689;28;20049;-85
2021/06/15 07:34:40;;;;;;;9.52;4.88;;;;;;;21.72;53.01;100386.34;5051746;28;20410;-84
2021/06/15 07:37:07;;;;;;;8.50;4.88;;;;;;;21.81;53.05;100375.75;5051601;28;20053;-84
2021/06/15 07:39:34;;;;;;;7.57;5.03;;;;;;;21.88;52.88;100384.91;5034929;28;20049;-85
2021/06/15 07:42:03;;;;;;;21.30;5.60;;;;;;;21.96;52.52;100390.38;5031958;28;20089;-84
2021/06/15 07:44:30;;;;;;;9.75;5.15;;;;;;;22.05;52.50;100393.19;5032554;28;20065;-85
2021/06/15 07:46:57;;;;;;;10.68;5.28;;;;;;;22.14;52.41;100389.59;5039806;28;20040;-85
2021/06/15 07:49:25;;;;;;;10.93;5.50;;;;;;;22.21;52.18;100388.00;5051545;28;20059;-85
2021/06/15 07:51:52;;;;;;;9.38;4.75;;;;;;;22.29;51.41;100383.75;5051220;28;20053;-85
2021/06/15 07:54:34;;;;;;;9.20;4.53;;;;;;;22.34;51.22;100386.81;5049673;28;20135;-84
2021/06/15 07:57:00;;;;;;;7.55;4.65;;;;;;;22.37;51.02;100389.22;5051328;28;20057;-84
2021/06/15 07:59:33;;;;;;;13.38;5.10;;;;;;;22.37;50.95;100390.06;5051662;28;20511;-84
2021/06/15 08:02:00;;;;;;;;;;;;;;;22.42;50.99;100392.28;5051665;28;20052;-84
2021/06/15 08:04:27;;;;;;;9.02;4.22;;;;;;;22.51;50.31;100388.69;5054459;28;19940;-84
2021/06/15 08:06:57;;;;;;;8.15;4.07;;;;;;;22.51;50.12;100394.06;5055315;28;20076;-84
2021/06/15 08:09:24;;;;;;;14.45;5.30;;;;;;;22.55;50.36;100393.78;5055341;28;20057;-84
2021/06/15 08:11:51;;;;;;;7.28;4.40;;;;;;;22.57;50.29;100384.59;5053262;28;20053;-84
2021/06/15 08:14:20;;;;;;;8.15;4.20;;;;;;;22.58;49.76;100385.47;5051669;28;20091;-84
2021/06/15 08:16:46;;;;;;;6.55;3.53;;;;;;;22.62;49.74;100394.91;5054608;28;20504;-84
2021/06/15 08:19:15;;;;;;;7.00;3.92;;;;;;;22.65;49.90;100394.56;5055408;28;20474;-88
2021/06/15 08:21:41;;;;;;;7.90;3.33;;;;;;;22.70;49.22;100394.97;5056241;28;20049;-84
2021/06/15 08:24:12;;;;;;;8.02;3.65;;;;;;;22.75;49.12;100392.69;5056194;28;20053;-82
2021/06/15 08:26:38;;;;;;;8.07;3.88;;;;;;;22.83;49.05;100393.78;5055009;28;20059;-85
2021/06/15 08:29:05;;;;;;;15.70;4.35;;;;;;;22.88;48.71;100394.97;5036222;28;20060;-85
2021/06/15 08:31:32;;;;;;;9.68;3.60;;;;;;;22.93;48.66;100393.69;5037987;28;20077;-84
2021/06/15 08:33:59;;;;;;;6.50;3.28;;;;;;;22.98;48.42;100394.06;5034769;28;20144;-84
2021/06/15 08:36:26;;;;;;;6.65;3.60;;;;;;;23.01;48.61;100391.94;5034834;28;20057;-82
2021/06/15 08:38:52;;;;;;;9.93;3.33;;;;;;;23.10;49.01;100397.38;5034894;28;20061;-82
2021/06/15 08:41:21;;;;;;;9.65;3.83;;;;;;;23.19;48.52;100399.13;5039185;28;20133;-88
2021/06/15 08:43:48;;;;;;;6.72;3.08;;;;;;;23.26;48.24;100386.78;5054528;28;20049;-88
2021/06/15 08:46:15;;;;;;;8.15;3.00;;;;;;;23.32;48.20;100379.09;5055034;28;20470;-88
2021/06/15 08:48:42;;;;;;;5.68;2.80;;;;;;;23.37;47.95;100387.56;5054568;28;20068;-88
2021/06/15 08:51:09;;;;;;;9.07;3.40;;;;;;;23.39;47.44;100389.06;5054727;28;20075;-88
2021/06/15 08:53:37;;;;;;;5.95;2.53;;;;;;;23.41;47.46;100381.69;5054521;28;20156;-88
2021/06/15 08:56:36;;;;;;;6.38;2.72;;;;;;;23.37;47.51;100392.91;5041803;28;20064;-84
2021/06/15 08:59:30;;;;;;;6.95;2.55;;;;;;;23.39;47.23;100386.38;5009042;28;20081;-85
2021/06/15 09:02:05;;;;;;;5.72;2.40;;;;;;;23.40;46.94;100382.69;5017285;28;20468;-85
2021/06/15 09:04:33;;;;;;;6.03;2.17;;;;;;;23.43;46.48;100379.72;5054502;28;20473;-85
2021/06/15 09:07:01;;;;;;;5.65;2.42;;;;;;;23.45;46.43;100376.88;5054020;28;20053;-84
2021/06/15 09:09:45;;;;;;;6.60;2.83;;;;;;;23.42;46.37;100377.19;5053916;28;20412;-84
2021/06/15 09:12:16;;;;;;;10.15;2.53;;;;;;;23.48;46.33;100376.56;5054015;28;20049;-84
2021/06/15 09:14:47;;;;;;;6.40;2.08;;;;;;;23.52;46.06;100372.53;5053351;28;20550;-84
2021/06/15 09:17:25;;;;;;;7.10;2.50;;;;;;;23.54;45.75;100370.53;5054173;28;20049;-85
2021/06/15 09:19:54;;;;;;;5.65;2.13;;;;;;;23.60;46.00;100377.13;5054266;28;20053;-84
2021/06/15 09:22:34;;;;;;;7.43;2.40;;;;;;;23.63;45.25;100378.66;5054139;28;20417;-84
2021/06/15 09:25:03;;;;;;;8.48;2.50;;;;;;;23.69;45.50;100376.19;5033803;28;20053;-84
2021/06/15 09:27:35;;;;;;;4.65;1.98;;;;;;;23.72;45.41;100380.41;5034372;28;20061;-84
2021/06/15 09:30:13;;;;;;;8.03;2.80;;;;;;;23.72;45.41;100375.03;5033903;28;20052;-85
2021/06/15 09:32:42;;;;;;;6.40;2.85;;;;;;;23.78;45.10;100374.38;5034027;28;20367;-85
2021/06/15 09:35:20;;;;;;;10.13;3.08;;;;;;;23.81;44.99;100370.56;5034059;28;20057;-85
2021/06/15 09:37:54;;;;;;;9.23;2.17;;;;;;;23.85;45.30;100368.38;5036128;28;20059;-85
2021/06/15 09:40:33;;;;;;;6.65;1.80;;;;;;;23.88;45.49;100376.13;5033998;28;20414;-84
2021/06/15 09:43:11;;;;;;;5.30;1.85;;;;;;;23.93;45.01;100377.31;5033797;28;20057;-84
2021/06/15 09:45:45;;;;;;;4.50;2.00;;;;;;;24.03;45.63;100385.25;5033685;28;20055;-85
2021/06/15 09:48:32;;;;;;;5.75;2.13;;;;;;;24.11;44.83;100380.97;5033639;28;20057;-84
2021/06/15 09:51:03;;;;;;;3.88;1.88;;;;;;;24.22;43.98;100379.84;5041332;28;20061;-84
2021/06/15 09:53:43;;;;;;;5.50;1.60;;;;;;;24.27;44.20;100382.88;5049472;28;20049;-84
2021/06/15 09:56:15;;;;;;;5.72;1.98;;;;;;;24.37;43.97;100380.06;5033914;28;20056;-84
2021/06/15 09:58:42;;;;;;;4.50;1.70;;;;;;;24.44;44.54;100381.06;5033351;28;20049;-85
2021/06/15 10:01:36;;;;;;;5.63;1.65;;;;;;;24.51;44.08;100378.59;5033643;28;20072;-85
2021/06/15 10:04:13;;;;;;;7.25;1.92;;;;;;;24.57;44.78;100377.94;5031277;28;20444;-84
2021/06/15 10:06:46;;;;;;;6.32;1.88;;;;;;;24.63;44.93;100369.19;5033202;28;20144;-85
2021/06/15 10:09:34;;;;;;;4.65;1.90;;;;;;;24.68;44.86;100374.94;5033669;28;20466;-84
2021/06/15 10:12:04;;;;;;;4.95;1.80;;;;;;;24.77;44.23;100378.47;5033168;28;20049;-87
2021/06/15 10:14:34;;;;;;;5.70;1.80;;;;;;;24.84;43.56;100379.53;5032972;28;20061;-88
2021/06/15 10:17:01;;;;;;;4.15;1.50;;;;;;;24.93;43.97;100371.47;5445802;22;20519;-88
2021/06/15 10:19:28;;;;;;;4.45;1.55;;;;;;;25.02;43.37;100373.16;5012015;28;20056;-87
2021/06/15 10:21:56;;;;;;;4.75;1.35;;;;;;;25.14;43.72;100364.72;5014194;28;20108;-86
2021/06/15 10:24:24;;;;;;;5.00;1.52;;;;;;;25.25;43.23;100369.78;5012961;28;20053;-88
2021/06/15 10:27:07;;;;;;;4.20;1.42;;;;;;;25.37;42.13;100367.56;5012677;28;20107;-87
2021/06/15 10:29:41;;;;;;;4.78;1.40;;;;;;;25.48;42.68;100371.75;5013744;28;20053;-87
2021/06/15 10:32:28;;;;;;;3.95;1.20;;;;;;;25.60;42.45;100367.72;5013184;28;20049;-87
2021/06/15 10:35:07;;;;;;;6.07;1.85;;;;;;;25.71;42.02;100365.72;5012596;28;20069;-88
2021/06/15 10:37:42;;;;;;;5.35;1.60;;;;;;;25.85;42.40;100373.06;5008007;28;20053;-87
2021/06/15 10:40:12;;;;;;;5.75;1.50;;;;;;;25.96;41.81;100362.91;4993809;28;20064;-87
2021/06/15 10:42:41;;;;;;;6.68;1.58;;;;;;;26.12;42.53;100365.56;4993014;28;20109;-88
2021/06/15 10:45:12;;;;;;;4.00;1.20;;;;;;;26.32;41.45;100362.47;4992683;28;20420;-88
2021/06/15 10:48:04;;;;;;;2.67;1.20;;;;;;;26.60;41.95;100363.81;4993915;28;20074;-88
2021/06/15 10:50:38;;;;;;;4.78;1.42;;;;;;;27.03;40.84;100361.50;4991933;28;20438;-88
2021/06/15 10:53:08;;;;;;;3.65;1.13;;;;;;;27.53;41.21;100365.63;5011259;28;20396;-88
2021/06/15 10:55:48;;;;;;;4.88;1.15;;;;;;;28.02;40.75;100352.56;5012219;28;20507;-87
2021/06/15 10:58:28;;;;;;;4.25;1.30;;;;;;;28.54;40.28;100349.88;5012202;28;20042;-87
2021/06/15 11:01:37;;;;;;;6.70;1.17;;;;;;;29.12;39.22;100346.31;5012671;28;20049;-88
2021/06/15 11:04:12;;;;;;;2.88;0.82;;;;;;;29.69;38.10;100357.16;4972771;28;20134;-88
2021/06/15 11:06:43;;;;;;;6.18;1.52;;;;;;;30.17;37.72;100347.38;4972555;28;20432;-89
2021/06/15 11:09:16;;;;;;;4.32;1.05;;;;;;;30.62;37.22;100351.47;4957090;28;20058;-88
2021/06/15 11:11:44;;;;;;;4.68;1.13;;;;;;;31.06;36.21;100355.50;4980530;28;20042;-88
2021/06/15 11:14:23;;;;;;;5.60;1.40;;;;;;;31.41;35.21;100351.75;5011487;28;20139;-87
2021/06/15 11:17:00;;;;;;;5.20;0.98;;;;;;;31.73;34.28;100353.75;5011536;28;20049;-88
2021/06/15 11:19:32;;;;;;;6.40;1.45;;;;;;;32.01;33.78;100347.22;5011815;28;20138;-87
2021/06/15 11:22:22;;;;;;;5.35;1.17;;;;;;;32.20;34.27;100337.28;5005859;28;20054;-86
2021/06/15 11:24:54;;;;;;;5.68;1.05;;;;;;;32.52;33.77;100349.28;4991726;28;20058;-88
2021/06/15 11:27:23;;;;;;;3.33;1.10;;;;;;;32.74;33.09;100336.16;4991887;28;20050;-89
2021/06/15 11:29:52;;;;;;;4.10;1.15;;;;;;;32.95;32.43;100350.44;4992224;28;20518;-87
2021/06/15 11:32:36;;;;;;;4.80;1.35;;;;;;;33.12;31.91;100340.66;5000510;28;20041;-87
2021/06/15 11:35:03;;;;;;;4.13;1.08;;;;;;;33.35;32.20;100344.66;5011161;28;20107;-86
2021/06/15 11:37:37;;;;;;;3.65;1.30;;;;;;;33.49;29.98;100348.06;5011329;28;20056;-89
2021/06/15 11:40:16;;;;;;;4.53;1.10;;;;;;;33.59;31.29;100342.13;5012469;28;20054;-88
2021/06/15 11:42:55;;;;;;;3.97;1.25;;;;;;;33.74;30.69;100349.94;5011372;28;20042;-89
2021/06/15 11:45:40;;;;;;;3.20;1.15;;;;;;;33.82;30.50;100337.88;4995483;28;20050;-87